Time;durP1;ratioP1;P1;durP2;ratioP2;P2;SDS_P1;SDS_P2;PMS_P1;PMS_P2;Temp;Humidity;BMP_temperature;BMP_pressure;BME280_temperature;BME280_humidity;BME280_pressure;Samples;Min_cycle;Max_cycle;Signal;HPM_P1;HPM_P2
2022/08/10 00:01:51;;;;;;;7.30;4.47;;;;;;;22.63;57.11;96940.00;5004361;28;20065;-57
2022/08/10 00:04:22;;;;;;;11.07;4.30;;;;;;;22.98;56.65;96964.28;5004527;28;20120;-56
2022/08/10 00:06:51;;;;;;;6.05;4.28;;;;;;;23.10;56.48;96960.66;5002897;28;20061;-59
2022/08/10 00:09:19;;;;;;;4.30;3.70;;;;;;;22.70;56.68;96903.84;5004361;28;20116;-61
2022/08/10 00:11:46;;;;;;;6.72;4.30;;;;;;;22.62;57.52;96913.03;5002829;28;20058;-60
2022/08/10 00:14:12;;;;;;;6.90;3.88;;;;;;;22.74;58.64;96949.72;5004577;28;20238;-56
2022/08/10 00:16:39;;;;;;;5.47;4.57;;;;;;;22.22;59.03;96902.13;5002551;28;20062;-61
2022/08/10 00:19:06;;;;;;;5.00;4.00;;;;;;;22.58;59.28;96957.50;5004523;28;20080;-60
2022/08/10 00:21:32;;;;;;;5.28;4.72;;;;;;;22.29;60.33;96961.19;5003887;28;20108;-61
2022/08/10 00:23:59;;;;;;;9.77;4.07;;;;;;;22.06;60.29;96927.63;5006575;28;20128;-56
2022/08/10 00:26:26;;;;;;;5.28;4.72;;;;;;;22.09;60.46;96954.94;5006658;28;20080;-61
2022/08/10 00:29:12;;;;;;;6.07;4.38;;;;;;;21.89;60.63;96928.94;5008270;28;20050;-60
2022/08/10 00:31:39;;;;;;;6.22;4.70;;;;;;;21.68;60.90;96909.78;5006386;28;20050;-58
2022/08/10 00:34:26;;;;;;;5.22;4.38;;;;;;;22.03;60.96;96947.50;5007981;28;20053;-61
2022/08/10 00:36:53;;;;;;;5.65;4.25;;;;;;;21.93;61.14;96940.91;5007338;28;20073;-60
2022/08/10 00:39:20;;;;;;;6.20;4.10;;;;;;;22.08;61.22;96947.72;5007640;28;20519;-57
2022/08/10 00:41:47;;;;;;;7.30;4.53;;;;;;;22.08;60.62;96956.19;5007784;28;20047;-61
2022/08/10 00:44:48;;;;;;;6.03;4.45;;;;;;;22.06;61.27;96943.75;5007601;28;20141;-57
2022/08/10 00:47:17;;;;;;;7.85;4.68;;;;;;;22.04;61.63;96947.03;5007477;28;20350;-60
2022/08/10 00:50:04;;;;;;;5.40;4.22;;;;;;;21.43;62.31;96873.06;5007413;28;20058;-55
2022/08/10 00:52:32;;;;;;;5.50;4.32;;;;;;;21.62;63.58;96936.97;5007644;28;20064;-56
2022/08/10 00:55:01;;;;;;;7.32;4.43;;;;;;;21.41;64.12;96937.53;5007479;28;20069;-56
2022/08/10 00:57:29;;;;;;;6.00;4.30;;;;;;;21.32;64.03;96923.31;5005720;28;20089;-56
2022/08/10 00:59:56;;;;;;;5.03;3.95;;;;;;;21.42;63.92;96941.94;5007480;28;20113;-58
2022/08/10 01:02:30;;;;;;;6.20;4.35;;;;;;;21.66;61.24;96932.00;5007305;28;20049;-57
2022/08/10 01:05:01;;;;;;;7.03;4.67;;;;;;;21.89;60.18;96923.28;5005884;28;20065;-56
2022/08/10 01:07:40;;;;;;;4.72;4.20;;;;;;;22.27;58.47;96926.97;5005770;28;20543;-60
2022/08/10 01:10:19;;;;;;;5.55;4.28;;;;;;;22.38;57.14;96921.78;5007568;28;20053;-60
2022/08/10 01:13:09;;;;;;;7.70;4.93;;;;;;;22.60;56.59;96915.50;5006962;28;20065;-60
2022/08/10 01:16:11;;;;;;;6.55;4.25;;;;;;;22.72;56.14;96917.53;5022204;28;20053;-60
2022/08/10 01:18:52;;;;;;;10.98;4.75;;;;;;;23.01;55.37;96918.16;4999844;28;20136;-61
2022/08/10 01:21:48;;;;;;;5.70;3.95;;;;;;;23.07;54.69;96916.34;5006945;28;20073;-60
2022/08/10 01:24:37;;;;;;;5.50;4.28;;;;;;;23.15;54.50;96917.69;5007088;28;20512;-61
2022/08/10 01:27:26;;;;;;;4.53;4.03;;;;;;;23.21;54.53;96910.19;5021987;28;20065;-56
2022/08/10 01:30:05;;;;;;;4.28;3.65;;;;;;;23.27;54.76;96914.06;5007090;28;20136;-61
2022/08/10 01:32:39;;;;;;;5.60;4.60;;;;;;;23.32;54.72;96911.44;5006533;28;20053;-61
2022/08/10 01:35:16;;;;;;;6.03;4.00;;;;;;;23.30;54.03;96908.28;5006950;28;20065;-58
2022/08/10 01:37:54;;;;;;;8.07;4.43;;;;;;;22.96;53.53;96848.09;5007230;28;20061;-57
2022/08/10 01:40:24;;;;;;;5.30;4.55;;;;;;;23.46;53.51;96904.47;5007259;28;20470;-61
2022/08/10 01:42:54;;;;;;;6.80;4.32;;;;;;;23.58;52.84;96912.91;5006521;28;20050;-61
2022/08/10 01:45:37;;;;;;;7.70;4.25;;;;;;;23.32;52.23;96860.56;5006558;28;20054;-61
2022/08/10 01:48:28;;;;;;;5.63;4.10;;;;;;;23.61;52.21;96908.41;5006261;28;20074;-60
2022/08/10 01:51:01;;;;;;;7.53;4.90;;;;;;;23.61;52.07;96899.91;5006773;28;20054;-57
2022/08/10 01:53:36;;;;;;;5.97;4.22;;;;;;;23.81;50.98;96897.53;5006313;28;20499;-60
2022/08/10 01:56:12;;;;;;;5.32;4.40;;;;;;;23.80;51.38;96901.63;5006020;28;20066;-61
2022/08/10 01:58:41;;;;;;;8.48;4.32;;;;;;;23.40;51.11;96847.75;5021184;28;20084;-57
2022/08/10 02:01:12;;;;;;;6.97;4.38;;;;;;;23.76;51.57;96906.63;5006079;28;20069;-60
2022/08/10 02:03:46;;;;;;;5.22;4.18;;;;;;;23.65;51.48;96889.25;5005945;28;20548;-60
2022/08/10 02:06:38;;;;;;;8.75;4.68;;;;;;;23.75;51.41;96910.69;5005952;28;20049;-56
2022/08/10 02:09:07;;;;;;;8.57;4.10;;;;;;;23.54;50.72;96860.56;5005899;28;20069;-58
2022/08/10 02:11:36;;;;;;;4.78;4.32;;;;;;;23.80;51.08;96891.09;5006291;28;20112;-60
2022/08/10 02:14:28;;;;;;;6.82;5.03;;;;;;;23.47;51.19;96855.19;5006367;28;20058;-57
2022/08/10 02:17:04;;;;;;;6.68;4.38;;;;;;;23.75;51.31;96905.03;5005868;28;20053;-56
2022/08/10 02:19:33;;;;;;;6.93;4.72;;;;;;;23.77;51.31;96902.56;5006026;28;20148;-60
2022/08/10 02:22:01;;;;;;;9.80;4.65;;;;;;;23.74;51.32;96897.81;5005749;28;20559;-56
2022/08/10 02:24:50;;;;;;;11.00;5.45;;;;;;;23.66;51.52;96902.16;5005786;28;20517;-56
2022/08/10 02:27:20;;;;;;;8.32;4.60;;;;;;;23.60;51.79;96898.34;5005765;28;20100;-56
2022/08/10 02:29:48;;;;;;;9.35;4.97;;;;;;;23.53;52.17;96905.03;5005968;28;20050;-58
2022/08/10 02:32:16;;;;;;;7.32;4.50;;;;;;;23.53;52.34;96899.38;5005748;28;20476;-60
2022/08/10 02:35:04;;;;;;;9.90;4.85;;;;;;;23.63;52.02;96891.75;5005718;28;20143;-60
2022/08/10 02:37:36;;;;;;;4.43;3.80;;;;;;;23.72;51.79;96895.44;5005508;28;20572;-57
2022/08/10 02:40:03;;;;;;;5.68;4.60;;;;;;;23.40;51.79;96838.47;5004286;28;20057;-61
2022/08/10 02:42:51;;;;;;;7.18;4.63;;;;;;;23.80;51.68;96890.31;5005155;28;20066;-60
2022/08/10 02:45:45;;;;;;;5.90;4.20;;;;;;;23.91;51.23;96890.69;5004782;28;20049;-60
2022/08/10 02:48:26;;;;;;;7.47;4.07;;;;;;;23.92;51.45;96895.09;5005481;28;20050;-56
2022/08/10 02:50:57;;;;;;;8.40;4.63;;;;;;;23.97;51.01;96894.53;5005691;28;20112;-60
2022/08/10 02:53:56;;;;;;;7.53;4.65;;;;;;;23.84;51.68;96907.94;5005009;28;20095;-60
2022/08/10 02:56:35;;;;;;;4.47;4.07;;;;;;;23.85;51.51;96898.22;5004870;28;20215;-60
2022/08/10 02:59:10;;;;;;;5.30;4.15;;;;;;;23.85;51.46;96893.31;5002338;28;20058;-56
2022/08/10 03:01:45;;;;;;;14.75;4.97;;;;;;;23.73;51.88;96901.88;4985793;28;20054;-60
2022/08/10 03:04:20;;;;;;;9.20;5.20;;;;;;;23.03;52.56;96837.34;4985792;28;20073;-56
2022/08/10 03:07:12;;;;;;;6.63;4.53;;;;;;;23.12;52.88;96853.59;4985412;28;20050;-60
2022/08/10 03:09:40;;;;;;;10.60;4.38;;;;;;;23.41;52.76;96910.75;4985487;28;20600;-60
2022/08/10 03:12:09;;;;;;;9.35;5.25;;;;;;;23.06;53.24;96886.50;4984088;28;20054;-56
2022/08/10 03:14:56;;;;;;;10.57;4.40;;;;;;;23.28;53.21;96927.75;4985739;28;20058;-60
2022/08/10 03:17:25;;;;;;;7.85;4.43;;;;;;;23.36;53.22;96922.63;4985366;28;20364;-60
2022/08/10 03:19:53;;;;;;;6.57;4.28;;;;;;;22.95;53.29;96872.72;4985290;28;20512;-62
2022/08/10 03:22:42;;;;;;;12.77;5.13;;;;;;;23.40;53.54;96928.94;4985383;28;20085;-60
2022/08/10 03:25:11;;;;;;;7.25;5.53;;;;;;;23.28;54.18;96926.97;4985123;28;20575;-57
2022/08/10 03:27:42;;;;;;;9.93;5.13;;;;;;;23.25;54.08;96939.94;4983594;28;20054;-60
2022/08/10 03:30:09;;;;;;;11.18;4.88;;;;;;;22.86;54.54;96877.53;4985369;28;20050;-57
2022/08/10 03:32:57;;;;;;;11.57;4.80;;;;;;;23.11;54.90;96934.75;4982956;28;20058;-56
2022/08/10 03:35:25;;;;;;;8.25;4.72;;;;;;;23.05;55.00;96927.31;4985492;28;20062;-60
2022/08/10 03:37:51;;;;;;;6.00;4.93;;;;;;;23.04;54.96;96935.00;4983523;28;20046;-60
2022/08/10 03:40:26;;;;;;;;;;;;;;;23.11;55.14;96934.00;4986076;28;20057;-61
2022/08/10 03:43:15;;;;;;;5.93;4.82;;;;;;;22.82;55.83;96905.09;4985522;28;20444;-60
2022/08/10 03:45:42;;;;;;;4.75;4.28;;;;;;;23.10;55.45;96949.34;4985342;28;20058;-59
2022/08/10 03:48:22;;;;;;;11.82;5.13;;;;;;;23.19;55.50;96944.56;4985154;28;20062;-57
2022/08/10 03:50:49;;;;;;;6.03;4.72;;;;;;;22.85;55.67;96901.34;4985451;28;20678;-57
2022/08/10 03:53:19;;;;;;;6.20;4.88;;;;;;;23.14;55.89;96945.16;4985260;28;20073;-57
2022/08/10 03:56:07;;;;;;;9.00;4.85;;;;;;;23.29;55.39;96951.13;4985037;28;20714;-56
2022/08/10 03:58:54;;;;;;;8.07;4.82;;;;;;;23.32;55.77;96953.06;4989773;28;20058;-58
2022/08/10 04:01:21;;;;;;;12.98;4.90;;;;;;;23.16;56.25;96941.88;5007254;28;20056;-61
2022/08/10 04:04:08;;;;;;;7.05;5.10;;;;;;;23.48;56.28;96952.91;5008235;28;20755;-59
2022/08/10 04:06:40;;;;;;;6.18;5.00;;;;;;;23.32;54.65;96905.00;5007161;28;20046;-59
2022/08/10 04:09:06;;;;;;;6.88;5.22;;;;;;;23.75;53.72;96953.13;5008624;28;20053;-59
2022/08/10 04:11:33;;;;;;;5.35;4.57;;;;;;;23.92;53.76;96949.66;5008352;28;20055;-61
2022/08/10 04:14:00;;;;;;;7.63;4.80;;;;;;;23.90;53.45;96951.34;5008242;28;20056;-59
2022/08/10 04:16:26;;;;;;;8.32;4.80;;;;;;;23.89;53.49;96938.47;5008221;28;20042;-62
2022/08/10 04:18:53;;;;;;;6.47;4.35;;;;;;;24.07;52.97;96949.97;5007847;28;20070;-60
2022/08/10 04:21:29;;;;;;;5.40;4.43;;;;;;;23.83;52.81;96924.13;5006753;28;20046;-61
2022/08/10 04:23:59;;;;;;;8.15;5.40;;;;;;;24.11;52.95;96956.25;5006809;28;20064;-60
2022/08/10 04:26:26;;;;;;;7.95;4.30;;;;;;;24.17;53.12;96954.41;5008299;28;20057;-56
2022/08/10 04:28:53;;;;;;;8.40;4.93;;;;;;;24.28;53.06;96949.13;5008232;28;20487;-56
2022/08/10 04:31:23;;;;;;;5.93;4.75;;;;;;;24.27;52.94;96953.22;5007750;28;20116;-55
2022/08/10 04:33:53;;;;;;;6.25;4.60;;;;;;;24.08;52.98;96928.09;5008019;28;20053;-60
2022/08/10 04:36:22;;;;;;;10.05;4.80;;;;;;;24.28;52.81;96966.13;5007928;28;20611;-60
2022/08/10 04:38:50;;;;;;;9.32;5.43;;;;;;;23.94;53.38;96906.75;5007665;28;20096;-61
2022/08/10 04:41:17;;;;;;;12.80;5.05;;;;;;;24.22;53.37;96956.66;5007638;28;20056;-60
2022/08/10 04:43:45;;;;;;;11.52;5.00;;;;;;;24.34;53.43;96969.97;5007639;28;20049;-57
2022/08/10 04:46:12;;;;;;;5.38;4.35;;;;;;;24.22;53.38;96967.19;5008003;28;20049;-60
2022/08/10 04:48:58;;;;;;;8.20;4.78;;;;;;;24.13;53.79;96969.94;5007775;28;20124;-56
2022/08/10 04:51:27;;;;;;;13.45;5.43;;;;;;;24.10;54.15;96970.88;5006128;28;20057;-56
2022/08/10 04:53:54;;;;;;;6.90;4.80;;;;;;;24.15;54.26;96967.47;5007689;28;20050;-60
2022/08/10 04:56:34;;;;;;;12.10;4.43;;;;;;;23.91;54.79;96952.94;5006169;28;20141;-60
2022/08/10 04:59:00;;;;;;;5.65;4.78;;;;;;;23.77;55.24;96911.03;5005440;28;20057;-56
2022/08/10 05:01:28;;;;;;;6.72;4.90;;;;;;;24.04;55.99;96945.22;4987881;28;20065;-56
2022/08/10 05:04:15;;;;;;;7.55;5.75;;;;;;;24.22;56.63;96970.81;4986681;28;20058;-57
2022/08/10 05:07:02;;;;;;;8.57;5.30;;;;;;;24.12;57.29;96957.88;4987856;28;20054;-60
2022/08/10 05:09:28;;;;;;;7.95;5.15;;;;;;;24.14;57.46;96948.91;4985666;28;20054;-56
2022/08/10 05:11:55;;;;;;;5.97;5.07;;;;;;;24.14;57.52;96949.66;4987345;28;20062;-62
2022/08/10 05:14:22;;;;;;;8.68;5.63;;;;;;;24.28;57.43;96954.03;4987930;28;20425;-60
2022/08/10 05:16:48;;;;;;;5.78;5.20;;;;;;;24.40;56.89;96945.44;4987471;28;20730;-60
2022/08/10 05:19:15;;;;;;;8.63;5.55;;;;;;;24.42;57.40;96951.41;4987567;28;20113;-56
2022/08/10 05:21:43;;;;;;;6.35;4.82;;;;;;;24.42;57.79;96945.75;4985731;28;20050;-61
2022/08/10 05:24:30;;;;;;;7.78;5.57;;;;;;;24.33;57.14;96911.72;4987055;28;20093;-56
2022/08/10 05:26:57;;;;;;;7.90;5.78;;;;;;;24.55;57.76;96957.78;4986954;28;20079;-56
2022/08/10 05:29:35;;;;;;;7.05;6.28;;;;;;;24.47;57.81;96939.47;4987200;28;20061;-56
2022/08/10 05:32:03;;;;;;;8.40;6.10;;;;;;;24.27;58.32;96907.13;4986890;28;20050;-55
2022/08/10 05:34:29;;;;;;;6.45;5.32;;;;;;;24.60;58.42;96956.38;4987174;28;20090;-56
2022/08/10 05:36:57;;;;;;;10.65;6.05;;;;;;;24.81;57.99;96958.41;4978438;28;20058;-59
2022/08/10 05:39:24;;;;;;;7.93;6.32;;;;;;;24.68;58.04;96927.34;4985516;28;20069;-61
2022/08/10 05:41:58;;;;;;;11.13;6.05;;;;;;;25.01;57.70;96972.97;4987078;28;20053;-61
2022/08/10 05:44:27;;;;;;;6.97;6.28;;;;;;;24.46;57.23;96855.78;4986949;28;20046;-61
2022/08/10 05:46:54;;;;;;;6.68;5.50;;;;;;;25.25;56.33;96969.09;4986890;28;20046;-60
2022/08/10 05:49:20;;;;;;;6.55;4.50;;;;;;;25.05;57.30;96965.88;4986076;28;20050;-61
2022/08/10 05:51:47;;;;;;;6.65;5.68;;;;;;;25.18;56.66;96966.56;4992895;28;20080;-61
2022/08/10 05:54:14;;;;;;;7.40;5.45;;;;;;;24.96;57.70;96967.94;5003885;28;20126;-67
2022/08/10 05:56:43;;;;;;;9.63;6.05;;;;;;;24.94;56.96;96968.38;5004363;28;20057;-61
2022/08/10 05:59:30;;;;;;;7.63;6.18;;;;;;;25.13;55.72;96975.66;5003245;28;20085;-64
2022/08/10 06:02:23;;;;;;;;;;;;;;;25.38;55.75;96982.38;5004036;28;20046;-60
2022/08/10 06:05:16;;;;;;;8.43;6.13;;;;;;;25.28;56.07;96988.00;5005113;28;19925;-59
2022/08/10 06:07:54;;;;;;;7.32;5.53;;;;;;;25.03;56.51;96988.25;5004693;28;20054;-62
2022/08/10 06:10:22;;;;;;;6.15;5.65;;;;;;;24.93;55.93;96974.50;5004890;28;20500;-62
2022/08/10 06:15:57;;;;;;;6.50;5.80;;;;;;;25.43;55.43;96984.59;5004306;28;20159;-57
2022/08/10 06:18:24;;;;;;;9.75;5.57;;;;;;;24.93;54.85;96926.31;5004730;28;20507;-57
2022/08/10 06:20:51;;;;;;;7.30;5.75;;;;;;;25.54;55.27;96982.09;5003683;28;20084;-63
2022/08/10 06:23:18;;;;;;;7.20;6.18;;;;;;;25.77;54.93;96985.13;5003658;28;20460;-62
2022/08/10 06:25:45;;;;;;;5.88;5.28;;;;;;;25.84;53.63;96975.50;5004229;28;20057;-58
2022/08/10 06:28:36;;;;;;;6.50;5.70;;;;;;;25.61;54.12;96970.47;4996450;28;20084;-63
2022/08/10 06:31:05;;;;;;;6.40;5.80;;;;;;;25.62;54.11;96983.38;4993344;28;20054;-58
2022/08/10 06:33:34;;;;;;;8.23;6.25;;;;;;;25.83;53.28;96988.13;4998950;28;20058;-62
2022/08/10 06:36:03;;;;;;;7.90;6.20;;;;;;;25.94;53.20;96994.13;5004830;28;20050;-56
2022/08/10 06:38:32;;;;;;;6.10;5.50;;;;;;;25.85;52.83;96988.44;5004331;28;20061;-64
2022/08/10 06:41:03;;;;;;;6.05;5.45;;;;;;;25.79;52.70;96996.00;5004175;28;20050;-59
2022/08/10 06:43:34;;;;;;;8.25;5.75;;;;;;;25.14;53.72;96942.44;5019624;28;20053;-57
2022/08/10 06:46:08;;;;;;;8.15;5.38;;;;;;;25.24;54.41;96992.25;5004707;28;20046;-58
2022/08/10 06:48:40;;;;;;;7.25;4.90;;;;;;;25.30;54.13;96991.19;5003421;28;20076;-62
2022/08/10 06:51:16;;;;;;;11.07;6.15;;;;;;;25.76;53.15;96991.28;5019232;28;20149;-67
2022/08/10 06:53:52;;;;;;;6.82;5.88;;;;;;;26.07;52.15;96986.25;5003788;28;20584;-62
2022/08/10 06:56:23;;;;;;;8.75;6.03;;;;;;;26.54;50.46;96992.22;5002943;28;20141;-57
2022/08/10 06:59:10;;;;;;;6.88;5.95;;;;;;;26.99;49.37;96986.38;5009338;28;20092;-61
2022/08/10 07:01:57;;;;;;;6.05;5.45;;;;;;;27.43;48.84;96987.47;5003031;28;20050;-55
2022/08/10 07:04:34;;;;;;;6.32;5.78;;;;;;;27.53;48.11;96988.19;5004038;28;20068;-56
2022/08/10 07:07:06;;;;;;;8.07;6.28;;;;;;;27.71;48.06;96960.38;5017760;28;20050;-58
2022/08/10 07:09:35;;;;;;;;;;;;;;;27.95;48.12;96991.69;5003785;28;20073;-63
2022/08/10 07:12:05;;;;;;;6.05;5.35;;;;;;;27.86;47.35;96978.31;5001749;28;20491;-61
2022/08/10 07:14:41;;;;;;;5.55;4.80;;;;;;;27.82;46.78;96989.09;4991676;28;20094;-58
2022/08/10 07:17:15;;;;;;;5.93;5.32;;;;;;;27.93;47.40;96989.34;5002496;28;20057;-54
2022/08/10 07:19:46;;;;;;;7.05;5.72;;;;;;;28.21;47.42;96987.06;5002741;28;20163;-60
2022/08/10 07:22:18;;;;;;;6.10;5.32;;;;;;;28.15;47.21;96975.53;5003813;28;20523;-62
2022/08/10 07:25:07;;;;;;;6.03;5.53;;;;;;;28.22;46.37;96947.97;5002837;28;20062;-55
2022/08/10 07:27:34;;;;;;;6.03;5.40;;;;;;;28.29;45.50;96981.75;5002368;28;20045;-60
2022/08/10 07:30:21;;;;;;;6.72;6.15;;;;;;;27.17;48.36;96983.47;5003624;28;20054;-60
2022/08/10 07:32:51;;;;;;;6.47;5.28;;;;;;;27.78;47.38;96987.69;5003410;28;20049;-60
2022/08/10 07:35:20;;;;;;;6.45;5.57;;;;;;;27.68;46.95;96955.66;5004106;28;20154;-56
2022/08/10 07:37:50;;;;;;;7.30;6.55;;;;;;;27.76;47.98;96979.63;5003201;28;20049;-57
2022/08/10 07:40:19;;;;;;;7.30;5.50;;;;;;;27.87;47.95;96968.47;4995763;28;20062;-62
2022/08/10 07:42:50;;;;;;;6.28;5.68;;;;;;;27.71;47.40;96983.16;5002604;28;20161;-56
2022/08/10 07:45:17;;;;;;;9.27;5.70;;;;;;;27.62;46.59;96928.34;5003469;28;20088;-61
2022/08/10 07:47:58;;;;;;;9.73;6.72;;;;;;;28.00;45.96;96994.69;4961753;28;20591;-56
2022/08/10 07:50:35;;;;;;;6.80;6.10;;;;;;;28.31;46.35;96982.06;5008510;28;20054;-57
2022/08/10 07:53:03;;;;;;;12.35;6.03;;;;;;;27.96;46.18;96954.19;5001227;28;20566;-63
2022/08/10 07:55:31;;;;;;;5.65;5.07;;;;;;;28.23;46.42;96978.03;5001472;28;20522;-61
2022/08/10 07:58:22;;;;;;;5.80;5.25;;;;;;;28.48;46.35;96994.59;5001597;28;20057;-56
2022/08/10 08:00:51;;;;;;;6.93;6.22;;;;;;;28.11;46.23;96969.25;4990304;28;20425;-59
2022/08/10 08:03:27;;;;;;;7.28;6.28;;;;;;;28.24;46.76;96979.59;4964427;28;20153;-59
2022/08/10 08:05:56;;;;;;;10.07;6.22;;;;;;;28.45;45.19;96989.84;4969592;28;20493;-60
2022/08/10 08:08:32;;;;;;;7.07;6.20;;;;;;;28.05;46.27;96994.00;4982625;28;20924;-59
2022/08/10 08:11:00;;;;;;;6.80;6.20;;;;;;;28.41;45.50;96997.78;4965024;28;20063;-62
2022/08/10 08:13:29;;;;;;;8.73;6.30;;;;;;;28.32;45.88;96997.88;4974285;28;20094;-61
2022/08/10 08:15:59;;;;;;;9.65;5.97;;;;;;;27.68;46.88;96998.34;4979764;28;20057;-58
2022/08/10 08:18:49;;;;;;;7.70;5.90;;;;;;;27.16;46.88;96970.50;4970054;28;20058;-66
2022/08/10 08:21:38;;;;;;;11.93;6.25;;;;;;;27.28;47.35;97000.84;4962927;28;20152;-58
2022/08/10 08:24:26;;;;;;;8.73;5.68;;;;;;;27.87;46.98;96996.97;4975762;28;20074;-57
2022/08/10 08:27:01;;;;;;;11.38;6.72;;;;;;;28.10;46.44;96990.50;4972846;28;20057;-58
2022/08/10 08:29:32;;;;;;;6.22;5.47;;;;;;;27.93;46.82;96999.97;4965079;28;20134;-56
2022/08/10 08:32:01;;;;;;;5.45;4.85;;;;;;;27.87;47.25;96990.47;4980264;28;20054;-65
2022/08/10 08:34:36;;;;;;;6.72;5.35;;;;;;;27.64;46.76;97000.63;4969274;28;20075;-57
2022/08/10 08:37:06;;;;;;;8.60;6.35;;;;;;;28.12;45.83;96995.69;4975727;28;20050;-60
2022/08/10 08:39:34;;;;;;;8.40;5.15;;;;;;;28.30;45.32;96994.72;4976491;28;20066;-61
2022/08/10 08:42:32;;;;;;;8.40;6.70;;;;;;;28.22;45.68;96993.56;4969026;28;20159;-63
2022/08/10 08:45:12;;;;;;;8.20;6.47;;;;;;;28.55;44.88;96977.88;4982486;28;20062;-59
2022/08/10 08:48:10;;;;;;;8.57;5.50;;;;;;;28.56;45.28;96990.06;4976964;28;20059;-58
2022/08/10 08:50:55;;;;;;;6.07;4.90;;;;;;;28.48;46.00;96988.88;4969483;28;20051;-62
2022/08/10 08:54:00;;;;;;;8.70;5.55;;;;;;;28.40;45.95;96981.97;4968844;28;20500;-56
2022/08/10 08:57:01;;;;;;;8.85;6.55;;;;;;;28.63;45.53;96995.41;4968073;28;20068;-63
2022/08/10 08:59:56;;;;;;;6.40;5.10;;;;;;;28.71;44.46;96991.66;4967291;28;20058;-57
2022/08/10 09:02:44;;;;;;;5.28;4.85;;;;;;;28.51;45.19;96985.06;4967963;28;20059;-59
2022/08/10 09:05:47;;;;;;;5.78;5.20;;;;;;;27.94;46.33;96985.25;4968342;28;20065;-63
2022/08/10 09:08:51;;;;;;;6.22;5.63;;;;;;;28.56;46.04;96978.66;4968114;28;20055;-63
2022/08/10 09:11:17;;;;;;;12.77;5.95;;;;;;;29.04;44.38;96985.69;4967790;28;20054;-55
2022/08/10 09:13:57;;;;;;;5.57;5.07;;;;;;;28.11;46.59;96980.66;4968025;28;20073;-64
2022/08/10 09:16:41;;;;;;;7.72;5.60;;;;;;;28.67;45.55;96973.16;4968181;28;20146;-56
2022/08/10 09:19:21;;;;;;;8.60;5.70;;;;;;;28.83;45.44;96981.22;4966345;28;20070;-62
2022/08/10 09:22:25;;;;;;;6.07;5.32;;;;;;;28.61;45.78;96987.31;4967706;28;20082;-56
2022/08/10 09:25:17;;;;;;;10.45;5.75;;;;;;;28.62;45.93;96988.09;4967401;28;20516;-55
2022/08/10 09:27:45;;;;;;;8.95;5.90;;;;;;;28.34;46.27;96989.63;4982572;28;20054;-56
2022/08/10 09:30:21;;;;;;;7.75;5.35;;;;;;;28.43;45.76;96986.69;4987408;28;20055;-65
2022/08/10 09:33:20;;;;;;;11.10;8.00;;;;;;;28.53;46.17;96980.44;4967547;28;20051;-66
2022/08/10 09:36:27;;;;;;;14.27;9.40;;;;;;;28.74;45.68;97026.97;4983593;28;20081;-66
2022/08/10 09:39:02;;;;;;;5.55;5.15;;;;;;;28.71;45.79;96979.44;4979780;28;20312;-55
2022/08/10 09:41:40;;;;;;;6.07;5.28;;;;;;;28.39;47.07;96974.72;4983826;28;20073;-67
2022/08/10 09:44:12;;;;;;;9.25;5.20;;;;;;;28.77;46.36;96971.78;4981312;28;20054;-56
2022/08/10 09:46:58;;;;;;;5.72;5.10;;;;;;;28.59;46.49;96969.94;4967089;28;20410;-58
2022/08/10 09:49:27;;;;;;;6.30;4.97;;;;;;;29.14;45.54;96990.06;4981858;28;20066;-66
2022/08/10 09:52:24;;;;;;;7.55;5.40;;;;;;;27.27;46.38;96754.56;4966913;28;20430;-59
2022/08/10 09:54:59;;;;;;;5.88;5.28;;;;;;;28.18;47.14;96997.34;4967106;28;20543;-65
2022/08/10 09:57:53;;;;;;;8.57;5.35;;;;;;;28.29;47.81;97001.72;4966931;28;20054;-63
2022/08/10 10:00:29;;;;;;;8.57;5.05;;;;;;;28.25;46.75;96987.66;4975355;28;20458;-56
2022/08/10 10:03:18;;;;;;;5.75;5.22;;;;;;;28.11;47.17;96965.63;4971479;28;20050;-56
2022/08/10 10:05:51;;;;;;;13.30;5.13;;;;;;;28.53;47.32;96991.06;4984917;28;20117;-60
2022/08/10 10:08:20;;;;;;;9.35;5.00;;;;;;;29.08;45.28;96986.34;4984507;28;20054;-59
2022/08/10 10:10:50;;;;;;;7.40;5.75;;;;;;;28.91;45.92;96982.41;4970727;28;20051;-61
2022/08/10 10:13:38;;;;;;;8.38;5.88;;;;;;;29.14;45.16;96978.63;4966871;28;20541;-61
2022/08/10 10:17:00;;;;;;;5.45;5.05;;;;;;;29.25;45.55;96967.41;4966690;28;20498;-60
2022/08/10 10:20:02;;;;;;;7.75;4.90;;;;;;;29.53;45.23;96971.44;4965521;28;20246;-56
2022/08/10 10:22:58;;;;;;;5.53;5.07;;;;;;;29.36;45.50;96962.66;4972325;28;20058;-62
2022/08/10 10:25:55;;;;;;;7.38;6.00;;;;;;;29.40;46.21;96968.16;4966749;28;20066;-62
2022/08/10 10:29:06;;;;;;;6.05;5.47;;;;;;;29.17;45.71;96969.09;4966819;28;20153;-62
2022/08/10 10:32:03;;;;;;;7.93;4.70;;;;;;;29.22;45.36;96945.56;4995203;28;20128;-61
2022/08/10 10:34:39;;;;;;;7.40;5.45;;;;;;;29.55;45.31;96966.00;4984743;28;20054;-60
2022/08/10 10:37:09;;;;;;;6.03;5.38;;;;;;;29.39;45.01;96958.00;4984603;28;20050;-62
2022/08/10 10:39:41;;;;;;;6.10;5.13;;;;;;;29.63;43.89;96949.25;4981158;28;20060;-57
2022/08/10 10:42:31;;;;;;;8.95;5.22;;;;;;;29.51;44.29;96971.16;4966162;28;20517;-63
2022/08/10 10:45:43;;;;;;;6.40;5.25;;;;;;;29.71;44.44;96956.91;4966403;28;20153;-64
2022/08/10 10:48:38;;;;;;;8.35;5.32;;;;;;;29.68;43.55;96962.84;4974590;28;20059;-56
2022/08/10 10:51:31;;;;;;;6.13;5.53;;;;;;;29.58;44.36;96955.69;4977258;28;20058;-57
2022/08/10 10:54:12;;;;;;;6.75;5.40;;;;;;;29.91;43.58;96965.47;4983053;28;20060;-61
2022/08/10 10:56:58;;;;;;;5.97;5.38;;;;;;;29.98;43.55;96956.50;4983518;28;20062;-63
2022/08/10 10:59:31;;;;;;;5.55;5.05;;;;;;;29.55;44.52;96963.16;4981790;28;20062;-55
2022/08/10 11:02:47;;;;;;;9.52;5.90;;;;;;;29.37;44.18;96897.78;4982239;28;20046;-56
2022/08/10 11:05:56;;;;;;;6.70;6.05;;;;;;;30.17;43.60;96952.03;4986544;28;20061;-58
2022/08/10 11:08:27;;;;;;;5.63;4.20;;;;;;;29.06;44.59;96949.75;4966177;28;20070;-56
2022/08/10 11:11:03;;;;;;;6.65;5.95;;;;;;;28.92;45.41;96944.03;4984593;28;20564;-65
2022/08/10 11:13:53;;;;;;;7.43;6.22;;;;;;;28.56;45.40;96899.66;4969210;28;20430;-64
2022/08/10 11:16:57;;;;;;;6.80;6.18;;;;;;;29.15;44.53;96963.09;4965833;28;20542;-62
2022/08/10 11:19:49;;;;;;;6.20;4.53;;;;;;;29.10;44.48;96969.50;4968509;28;21133;-63
2022/08/10 11:22:35;;;;;;;8.63;6.57;;;;;;;28.21;46.04;96969.97;4981221;28;20077;-62
2022/08/10 11:25:26;;;;;;;6.82;5.45;;;;;;;28.25;45.68;96918.50;4983346;28;20054;-63
2022/08/10 11:28:07;;;;;;;7.00;5.03;;;;;;;28.67;44.71;96961.75;4968301;28;20386;-67
2022/08/10 11:30:56;;;;;;;6.45;5.43;;;;;;;28.95;44.98;96960.16;4976960;28;20062;-60
2022/08/10 11:33:45;;;;;;;5.50;5.00;;;;;;;28.80;44.54;96959.41;4964392;28;20525;-62
2022/08/10 11:36:50;;;;;;;5.43;4.93;;;;;;;27.89;45.71;96960.28;4965689;28;20054;-60
2022/08/10 11:39:33;;;;;;;6.32;5.82;;;;;;;28.00;46.74;96960.50;4978066;28;20062;-57
2022/08/10 11:42:09;;;;;;;8.05;5.80;;;;;;;27.69;46.74;96951.56;4985169;28;20055;-56
2022/08/10 11:45:16;;;;;;;5.80;5.30;;;;;;;27.69;46.14;96951.56;4979347;28;20054;-67
2022/08/10 11:47:52;;;;;;;5.82;5.25;;;;;;;28.01;45.83;96956.38;4966932;28;20051;-69
2022/08/10 11:50:42;;;;;;;7.60;5.60;;;;;;;28.36;45.33;96950.03;4995094;28;20068;-56
2022/08/10 11:53:16;;;;;;;7.65;5.28;;;;;;;28.07;45.85;96968.66;4975934;28;20120;-61
2022/08/10 11:55:52;;;;;;;6.10;5.50;;;;;;;28.45;45.48;96949.94;4979164;28;20068;-62
2022/08/10 12:01:09;;;;;;;5.70;5.07;;;;;;;28.75;42.94;96946.63;4986405;28;20469;-63
2022/08/10 12:03:40;;;;;;;6.00;5.13;;;;;;;28.60;43.94;96962.16;4966464;28;20054;-62
2022/08/10 12:06:12;;;;;;;6.80;5.65;;;;;;;28.40;44.49;96964.88;4973402;28;20058;-62
2022/08/10 12:08:44;;;;;;;8.23;5.65;;;;;;;28.09;45.01;96957.56;4965528;28;20051;-57
2022/08/10 12:11:32;;;;;;;7.07;6.10;;;;;;;28.04;45.14;96949.69;4973219;28;20106;-58
2022/08/10 12:14:14;;;;;;;5.63;5.07;;;;;;;28.20;45.39;96961.91;4979982;28;20152;-58
2022/08/10 12:16:59;;;;;;;5.65;5.10;;;;;;;28.06;44.51;96952.84;4964943;28;20138;-58
2022/08/10 12:19:43;;;;;;;8.32;5.53;;;;;;;28.39;43.32;96946.97;4981629;28;20050;-59
2022/08/10 12:22:56;;;;;;;6.32;5.20;;;;;;;29.05;42.09;96941.66;4982418;28;20050;-60
2022/08/10 12:25:31;;;;;;;5.22;4.82;;;;;;;29.18;42.05;96922.16;4983582;28;20164;-57
2022/08/10 12:28:28;;;;;;;5.22;4.57;;;;;;;29.22;42.25;96928.44;4968319;28;20525;-63
2022/08/10 12:31:16;;;;;;;6.63;5.72;;;;;;;29.18;42.94;96953.56;4980512;28;20153;-63